Time;durP1;ratioP1;P1;durP2;ratioP2;P2;SDS_P1;SDS_P2;PMS_P1;PMS_P2;Temp;Humidity;BMP_temperature;BMP_pressure;BME280_temperature;BME280_humidity;BME280_pressure;Samples;Min_cycle;Max_cycle;Signal;HPM_P1;HPM_P2
2022/04/25 07:58:47;;;;;;;21.88;18.98;;;;;;;9.66;78.53;100915.41;5351822;27;20386;-77
2022/04/25 08:01:21;;;;;;;21.35;18.45;;;;;;;9.56;79.49;100915.44;5300234;28;20075;-80
2022/04/25 08:03:52;;;;;;;22.25;18.73;;;;;;;9.60;79.43;100916.56;5301906;28;20096;-77
2022/04/25 08:06:24;;;;;;;21.55;19.17;;;;;;;9.73;79.45;100917.88;5297156;28;20115;-75
2022/04/25 08:08:56;;;;;;;23.05;18.95;;;;;;;9.72;78.98;100924.56;5293378;28;20116;-76
2022/04/25 08:11:28;;;;;;;22.05;19.73;;;;;;;9.87;78.68;100927.28;5301111;28;20024;-76
2022/04/25 08:19:43;;;;;;;24.00;20.85;;;;;;;9.72;80.67;100935.63;5301218;28;20491;-75
2022/04/25 08:22:17;;;;;;;23.40;20.08;;;;;;;9.75;81.62;100935.06;5308758;28;20039;-76
2022/04/25 08:24:48;;;;;;;22.08;19.88;;;;;;;9.76;82.03;100937.53;5303198;28;20020;-75
2022/04/25 08:27:20;;;;;;;25.85;20.60;;;;;;;9.83;83.55;100941.97;5301894;28;20483;-74
2022/04/25 08:29:51;;;;;;;22.83;19.80;;;;;;;9.96;83.85;100947.72;5314015;28;20107;-75
2022/04/25 08:32:23;;;;;;;21.48;19.27;;;;;;;9.89;84.03;100949.13;5301092;28;20387;-77
2022/04/25 08:34:54;;;;;;;23.73;21.33;;;;;;;9.94;85.13;100949.13;5300689;28;20059;-75
2022/04/25 08:37:25;;;;;;;22.55;20.35;;;;;;;9.87;85.44;100954.97;5299856;28;20036;-75
2022/04/25 08:39:57;;;;;;;23.88;21.00;;;;;;;9.77;86.39;100955.81;5300595;28;20029;-76
2022/04/25 08:42:37;;;;;;;23.55;21.08;;;;;;;9.76;86.82;100958.88;5291221;28;20031;-77
2022/04/25 08:45:09;;;;;;;22.30;20.00;;;;;;;9.81;86.73;100956.09;5300995;28;20028;-76
2022/04/25 08:47:53;;;;;;;24.08;21.48;;;;;;;9.84;87.35;100961.06;5300637;28;20478;-77
2022/04/25 08:50:29;;;;;;;26.75;22.65;;;;;;;9.90;86.76;100967.44;5299712;28;20028;-77
2022/04/25 08:53:00;;;;;;;;;;;;;;;10.01;85.62;100972.63;5300931;28;20051;-74
2022/04/25 08:55:32;;;;;;;24.23;21.73;;;;;;;9.93;87.66;100970.44;5301141;28;19912;-81
2022/04/25 08:58:06;;;;;;;26.20;22.70;;;;;;;9.84;87.56;100971.31;5293020;28;20049;-81
2022/04/25 09:00:37;;;;;;;25.23;22.60;;;;;;;9.90;87.76;100976.56;5293786;28;20103;-81
2022/04/25 09:03:08;;;;;;;26.73;21.50;;;;;;;9.74;86.78;100978.56;5302621;28;20112;-81
2022/04/25 09:05:41;;;;;;;23.77;20.33;;;;;;;9.68;86.52;100978.84;5297662;28;20036;-81
2022/04/25 09:08:19;;;;;;;24.58;22.00;;;;;;;9.78;87.28;100982.41;5290627;28;20387;-81
2022/04/25 09:10:51;;;;;;;22.73;20.48;;;;;;;9.85;87.23;100984.88;5271348;28;20045;-80
2022/04/25 09:13:22;;;;;;;23.85;21.52;;;;;;;9.87;86.92;100992.91;5273065;28;20092;-81
2022/04/25 09:15:53;;;;;;;23.95;21.45;;;;;;;9.88;87.43;100997.34;5280631;28;20033;-82
2022/04/25 09:18:25;;;;;;;24.33;21.83;;;;;;;9.87;87.02;100993.75;5273970;28;20036;-82
2022/04/25 09:21:03;;;;;;;24.70;22.30;;;;;;;9.90;88.14;100995.13;5285638;22;20040;-81
2022/04/25 09:23:35;;;;;;;24.45;21.95;;;;;;;9.76;87.77;101000.41;5280638;28;20124;-82
2022/04/25 09:26:08;;;;;;;27.35;22.58;;;;;;;9.85;88.13;101007.06;5289343;28;20107;-82
2022/04/25 09:28:54;;;;;;;24.38;21.88;;;;;;;9.85;88.61;101003.47;5284965;28;20044;-82
2022/04/25 09:31:25;;;;;;;27.00;22.47;;;;;;;9.74;87.96;101006.25;5285936;28;20032;-81
2022/04/25 09:34:13;;;;;;;26.25;23.10;;;;;;;9.91;89.34;100997.59;5284544;28;20490;-81
2022/04/25 09:36:46;;;;;;;24.73;21.77;;;;;;;9.79;88.53;101010.91;5285722;28;20048;-83
2022/04/25 09:39:28;;;;;;;31.30;22.85;;;;;;;9.94;89.63;101005.34;5285655;28;20028;-82
2022/04/25 09:42:00;;;;;;;26.05;22.20;;;;;;;9.85;88.29;101001.50;5298122;28;20080;-82
2022/04/25 09:44:55;;;;;;;25.17;22.60;;;;;;;10.01;88.54;101002.28;5287331;28;20029;-82
2022/04/25 09:47:28;;;;;;;26.27;23.30;;;;;;;9.94;88.46;100998.97;5285446;28;20058;-82
2022/04/25 09:50:04;;;;;;;27.50;24.75;;;;;;;10.11;89.15;101006.97;5286086;28;20029;-81
2022/04/25 09:52:51;;;;;;;26.63;23.77;;;;;;;10.09;89.96;101004.47;5285892;28;20032;-81
2022/04/25 09:55:27;;;;;;;24.92;22.48;;;;;;;10.17;89.49;101008.59;5282357;28;20067;-81
2022/04/25 09:57:58;;;;;;;28.30;23.90;;;;;;;10.18;89.44;101021.38;5284026;28;20349;-81
2022/04/25 10:00:33;;;;;;;26.42;23.58;;;;;;;10.12;89.57;101019.69;5283109;28;20127;-81
2022/04/25 10:03:06;;;;;;;25.77;22.83;;;;;;;10.23;88.96;101024.13;5284520;28;20017;-82
2022/04/25 10:05:48;;;;;;;26.20;23.58;;;;;;;10.22;89.77;101026.03;5292410;22;20466;-81
2022/04/25 10:08:20;;;;;;;23.92;21.58;;;;;;;10.10;88.61;101024.69;5283174;28;20378;-80
2022/04/25 10:10:58;;;;;;;26.13;22.17;;;;;;;10.19;88.50;101023.84;5284502;28;20024;-81
2022/04/25 10:13:33;;;;;;;22.77;20.20;;;;;;;10.10;87.63;101030.22;5283312;28;20119;-81
2022/04/25 10:16:08;;;;;;;23.58;21.38;;;;;;;10.11;88.61;101031.91;5285955;28;20375;-82
2022/04/25 10:18:39;;;;;;;22.83;20.48;;;;;;;10.12;87.51;101037.16;5284929;28;20040;-81
2022/04/25 10:21:11;;;;;;;23.65;20.67;;;;;;;10.09;88.10;101037.72;5282556;28;20544;-82
2022/04/25 10:23:44;;;;;;;23.15;20.75;;;;;;;10.11;88.38;101037.44;5284847;28;20036;-81
2022/04/25 10:26:16;;;;;;;22.23;20.13;;;;;;;10.21;88.43;101042.97;5284979;28;20025;-81
2022/04/25 10:28:54;;;;;;;21.73;19.52;;;;;;;10.18;89.02;101043.53;5284221;28;20081;-83
2022/04/25 10:31:41;;;;;;;23.08;20.67;;;;;;;10.24;88.97;101039.63;5275474;28;20142;-82
2022/04/25 10:34:15;;;;;;;20.45;18.48;;;;;;;10.27;87.83;101044.59;5282745;28;20028;-82
2022/04/25 10:36:50;;;;;;;20.75;18.85;;;;;;;10.39;87.83;101047.09;5283744;28;20035;-82
2022/04/25 10:39:24;;;;;;;22.87;20.67;;;;;;;10.35;89.20;101055.13;5284279;28;20024;-81
2022/04/25 10:44:45;;;;;;;21.58;19.48;;;;;;;10.32;87.98;101061.25;5285115;28;20037;-82
2022/04/25 10:47:26;;;;;;;21.70;19.50;;;;;;;10.34;87.63;101059.03;5284795;28;20037;-81
2022/04/25 10:49:57;;;;;;;20.45;18.55;;;;;;;10.36;87.26;101059.56;5284650;28;20128;-82
2022/04/25 10:55:31;;;;;;;25.40;22.98;;;;;;;10.43;87.12;101068.44;5340716;22;20510;-82
2022/04/25 10:58:11;;;;;;;17.65;15.90;;;;;;;10.63;87.86;101069.44;5283150;28;20036;-82
2022/04/25 11:00:45;;;;;;;15.75;14.25;;;;;;;10.87;88.21;101073.19;5285623;28;20613;-86
2022/04/25 11:03:19;;;;;;;16.10;14.65;;;;;;;10.96;87.23;101067.03;5282534;28;20032;-81
2022/04/25 11:06:03;;;;;;;18.63;16.73;;;;;;;10.79;86.44;101073.81;5283961;28;20032;-81
2022/04/25 11:08:37;;;;;;;17.95;16.15;;;;;;;10.75;85.54;101072.72;5274480;28;20036;-82
2022/04/25 11:11:20;;;;;;;21.83;19.70;;;;;;;10.82;86.43;101069.63;5284580;28;20107;-82
2022/04/25 11:14:09;;;;;;;18.65;16.77;;;;;;;11.06;85.92;101070.56;5284598;28;20107;-80
2022/04/25 11:16:40;;;;;;;19.55;17.67;;;;;;;10.84;85.64;101079.31;5279329;28;20029;-81
2022/04/25 11:19:19;;;;;;;27.92;20.08;;;;;;;10.93;86.45;101075.94;5284133;28;20026;-82
2022/04/25 11:21:55;;;;;;;19.98;18.08;;;;;;;10.93;86.83;101081.50;5285690;28;20032;-81
2022/04/25 11:24:33;;;;;;;20.15;18.05;;;;;;;11.02;86.67;101088.13;5284397;28;20468;-81
2022/04/25 11:27:12;;;;;;;20.10;17.30;;;;;;;10.90;85.67;101082.06;5292041;28;20111;-83
2022/04/25 11:29:45;;;;;;;19.08;17.17;;;;;;;11.06;85.63;101080.84;5289409;28;20036;-76
2022/04/25 11:32:25;;;;;;;17.83;16.20;;;;;;;11.02;84.91;101085.34;5286266;28;20154;-81
2022/04/25 11:34:58;;;;;;;17.75;15.98;;;;;;;10.76;83.23;101096.56;5286377;28;20043;-82
2022/04/25 11:37:32;;;;;;;18.25;16.35;;;;;;;10.86;85.64;101099.28;5286560;28;20033;-82
2022/04/25 11:40:06;;;;;;;17.48;15.48;;;;;;;11.10;85.50;101098.59;5276901;28;20024;-84
2022/04/25 11:42:37;;;;;;;17.00;15.40;;;;;;;11.26;86.45;101097.38;5289130;28;20036;-84
2022/04/25 11:45:09;;;;;;;16.92;15.32;;;;;;;11.42;85.90;101095.31;5289205;28;20024;-83
2022/04/25 11:47:40;;;;;;;16.77;15.07;;;;;;;11.41;86.58;101103.94;5298967;28;20467;-83
2022/04/25 11:50:12;;;;;;;21.02;16.77;;;;;;;11.23;84.84;101097.97;5293417;28;20078;-77
2022/04/25 11:52:44;;;;;;;16.75;15.10;;;;;;;11.08;83.35;101100.84;5297743;28;20082;-77
2022/04/25 11:55:17;;;;;;;18.15;16.25;;;;;;;11.32;85.41;101101.78;5298934;28;20017;-76
2022/04/25 11:57:48;;;;;;;28.75;25.73;;;;;;;11.46;83.27;101096.41;5292567;28;20466;-81
2022/04/25 12:00:21;;;;;;;16.17;14.50;;;;;;;11.66;83.38;101100.16;5299294;28;20021;-82
2022/04/25 12:05:40;;;;;;;18.48;16.58;;;;;;;11.58;83.33;101104.38;5674393;22;20082;-82
2022/04/25 12:17:05;;;;;;;17.23;15.50;;;;;;;11.62;80.60;101110.16;5304317;28;20466;-78
2022/04/25 12:19:55;;;;;;;19.33;17.42;;;;;;;11.53;81.86;101108.03;5288581;28;20024;-78
2022/04/25 12:22:26;;;;;;;18.38;16.10;;;;;;;11.51;81.50;101109.44;5303129;28;20031;-79
2022/04/25 12:25:18;;;;;;;20.88;18.60;;;;;;;11.36;82.63;101112.31;5303484;28;20378;-79
2022/04/25 12:28:12;;;;;;;19.70;17.70;;;;;;;11.49;81.28;101112.47;5287262;28;20440;-80
2022/04/25 12:31:05;;;;;;;18.98;16.98;;;;;;;11.54;81.90;101115.22;5303674;28;20663;-83
2022/04/25 12:33:40;;;;;;;20.48;18.40;;;;;;;11.49;81.56;101118.03;5304399;28;20028;-81
2022/04/25 12:36:24;;;;;;;21.55;19.25;;;;;;;11.25;81.13;101111.56;5303841;28;20051;-82
2022/04/25 12:39:13;;;;;;;17.52;15.60;;;;;;;11.70;81.66;101112.31;5313339;28;20020;-81
2022/04/25 12:41:58;;;;;;;20.67;18.67;;;;;;;11.50;82.47;101114.16;5300247;28;20028;-81
2022/04/25 12:44:30;;;;;;;23.67;19.60;;;;;;;11.46;81.67;101109.47;5305679;28;20084;-81
2022/04/25 12:47:04;;;;;;;20.75;18.58;;;;;;;11.29;80.30;101107.91;5307358;28;20020;-81
2022/04/25 12:49:43;;;;;;;19.90;17.15;;;;;;;11.47;80.31;101120.25;5306483;28;20107;-80
2022/04/25 12:52:22;;;;;;;19.05;17.17;;;;;;;11.26;79.17;101116.81;5307339;28;20028;-78
2022/04/25 12:54:54;;;;;;;20.05;18.15;;;;;;;11.38;81.07;101110.91;5305128;28;20098;-80
2022/04/25 12:57:26;;;;;;;22.33;20.00;;;;;;;11.25;82.29;101112.38;5307442;27;20423;-81
2022/04/25 12:59:59;;;;;;;21.38;19.10;;;;;;;11.42;82.89;101116.69;5307253;28;20028;-81
2022/04/25 13:02:35;;;;;;;22.13;19.60;;;;;;;11.61;83.26;101119.63;5306870;28;20111;-80
2022/04/25 13:05:17;;;;;;;18.77;16.88;;;;;;;11.77;81.97;101118.38;5306517;28;20063;-81
2022/04/25 13:07:48;;;;;;;22.25;20.08;;;;;;;11.70;82.40;101113.13;5307697;28;20028;-76
2022/04/25 13:10:21;;;;;;;21.58;19.38;;;;;;;11.55;82.65;101113.25;5306779;28;20031;-80
2022/04/25 13:12:56;;;;;;;21.85;19.50;;;;;;;11.65;82.33;101117.91;5307091;28;20488;-81
2022/04/25 13:15:31;;;;;;;22.83;20.55;;;;;;;11.67;83.26;101116.50;5307301;28;20103;-82
2022/04/25 13:18:02;;;;;;;22.92;20.17;;;;;;;11.55;82.41;101113.25;5306051;28;20438;-80
2022/04/25 13:20:36;;;;;;;22.17;19.88;;;;;;;11.69;81.65;101116.22;5307003;28;20028;-80
2022/04/25 13:23:08;;;;;;;18.30;16.50;;;;;;;12.16;81.20;101118.31;5306471;28;20023;-82
2022/04/25 13:25:39;;;;;;;21.40;19.17;;;;;;;11.89;79.03;101118.03;5306287;28;20035;-82
2022/04/25 13:28:12;;;;;;;25.02;22.55;;;;;;;11.86;79.16;101122.22;5307529;28;20064;-82
2022/04/25 13:30:43;;;;;;;22.25;19.95;;;;;;;11.78;80.92;101120.03;5321871;28;20032;-81
2022/04/25 13:33:14;;;;;;;20.23;18.20;;;;;;;11.79;81.47;101120.88;5305983;28;20028;-81
2022/04/25 13:35:48;;;;;;;19.52;17.63;;;;;;;12.01;80.96;101118.44;5306167;28;20062;-83
2022/04/25 13:38:20;;;;;;;20.30;18.15;;;;;;;11.95;79.38;101114.06;5306040;28;20142;-83
2022/04/25 13:40:53;;;;;;;28.52;25.50;;;;;;;12.01;79.86;101124.00;5305971;28;20430;-79
2022/04/25 13:43:25;;;;;;;21.80;19.13;;;;;;;12.21;80.45;101113.81;5306893;28;20030;-79
2022/04/25 13:45:58;;;;;;;20.23;18.23;;;;;;;11.76;78.56;101113.94;5305687;28;20043;-80
2022/04/25 13:48:29;;;;;;;21.13;17.50;;;;;;;12.03;78.70;101110.66;5306473;28;20089;-79
2022/04/25 13:51:00;;;;;;;19.67;17.63;;;;;;;11.82;77.81;101110.00;5306450;28;20020;-79
2022/04/25 13:53:33;;;;;;;21.10;18.70;;;;;;;11.98;78.87;101112.66;5291475;28;20024;-79
2022/04/25 13:56:09;;;;;;;23.17;18.50;;;;;;;11.81;80.13;101116.69;5304462;28;20107;-79
2022/04/25 13:58:41;;;;;;;20.15;18.00;;;;;;;12.03;79.88;101110.66;5305643;28;20032;-78
2022/04/25 14:01:13;;;;;;;22.00;17.92;;;;;;;11.94;78.91;101112.44;5305301;28;20031;-79
2022/04/25 14:03:45;;;;;;;19.80;17.50;;;;;;;12.12;78.92;101108.91;5306125;28;20028;-79
2022/04/25 14:06:16;;;;;;;19.17;16.95;;;;;;;12.10;78.34;101113.09;5305574;28;20485;-80
2022/04/25 14:08:47;;;;;;;18.10;16.20;;;;;;;12.26;76.44;101113.78;5306569;28;20048;-79
2022/04/25 14:11:19;;;;;;;17.67;16.00;;;;;;;12.17;76.72;101119.16;5305427;28;20032;-82
2022/04/25 14:13:53;;;;;;;19.40;17.40;;;;;;;12.06;76.25;101115.63;5308054;28;20055;-82
2022/04/25 14:16:25;;;;;;;19.67;17.75;;;;;;;11.94;77.31;101106.88;5307245;28;20024;-78
2022/04/25 14:18:57;;;;;;;17.85;15.93;;;;;;;12.07;76.86;101113.69;5307050;28;20031;-80
2022/04/25 14:21:28;;;;;;;20.25;18.25;;;;;;;11.91;77.90;101115.78;5307436;28;20036;-80
2022/04/25 14:24:00;;;;;;;20.95;18.35;;;;;;;11.92;78.23;101117.44;5306184;28;20039;-81
2022/04/25 14:26:34;;;;;;;22.00;19.23;;;;;;;11.84;77.58;101123.59;5302889;28;20497;-83
2022/04/25 14:29:09;;;;;;;21.23;18.65;;;;;;;11.64;77.77;101125.44;5305337;28;20016;-81
2022/04/25 14:31:41;;;;;;;24.25;20.00;;;;;;;11.78;78.17;101119.19;5306230;28;20032;-81
2022/04/25 14:34:12;;;;;;;22.55;20.10;;;;;;;11.91;78.07;101124.09;5307020;28;20020;-86
2022/04/25 14:36:44;;;;;;;21.42;19.20;;;;;;;12.05;77.23;101125.09;5305443;28;20116;-83
2022/04/25 14:39:17;;;;;;;26.25;20.88;;;;;;;11.77;76.80;101128.66;5306599;28;20449;-84
2022/04/25 14:41:49;;;;;;;26.65;21.20;;;;;;;11.89;78.44;101131.94;5305720;28;20119;-84
2022/04/25 14:44:20;;;;;;;21.08;18.70;;;;;;;12.02;78.39;101136.81;5307229;28;20099;-81
2022/04/25 14:46:54;;;;;;;26.42;20.48;;;;;;;11.84;77.82;101135.56;5306146;28;20063;-84
2022/04/25 14:54:20;;;;;;;24.88;20.50;;;;;;;11.70;76.62;101138.16;5305380;28;20077;-84
2022/04/25 14:55:07;;;;;;;24.48;19.88;;;;;;;11.89;76.79;101143.88;5314113;28;20482;-84
2022/04/25 14:57:39;;;;;;;21.05;18.95;;;;;;;11.90;77.28;101133.56;5307085;28;20032;-85
2022/04/25 15:00:10;;;;;;;21.90;19.60;;;;;;;11.83;76.19;101139.44;5294190;28;20021;-85
2022/04/25 15:02:42;;;;;;;20.40;17.48;;;;;;;11.87;76.14;101139.72;5305221;28;20026;-89
2022/04/25 15:05:16;;;;;;;20.40;17.50;;;;;;;11.95;78.21;101139.09;5308988;28;20071;-84
2022/04/25 15:07:47;;;;;;;20.85;18.35;;;;;;;11.98;77.10;101141.28;5308957;28;20093;-87
2022/04/25 15:10:19;;;;;;;20.13;17.98;;;;;;;11.86;76.20;101149.13;5313433;28;20024;-88
2022/04/25 15:12:53;;;;;;;18.95;16.83;;;;;;;12.06;76.89;101148.97;5310466;28;20038;-87
2022/04/25 15:15:25;;;;;;;20.77;17.70;;;;;;;11.71;75.59;101148.16;5311376;28;20031;-87
2022/04/25 15:17:59;;;;;;;20.90;18.80;;;;;;;11.63;75.94;101148.78;5312450;28;20020;-85
2022/04/25 15:20:31;;;;;;;65.10;51.10;;;;;;;11.72;75.89;101152.59;5311816;28;20115;-86
2022/04/25 15:23:06;;;;;;;21.10;18.95;;;;;;;11.64;76.08;101155.97;5310692;28;20043;-84
2022/04/25 15:28:10;;;;;;;30.77;24.10;;;;;;;11.70;75.51;101157.59;5443493;22;20420;-82
2022/04/25 15:30:47;;;;;;;20.92;18.58;;;;;;;11.70;76.27;101163.16;5288197;28;20028;-84
2022/04/25 15:33:44;;;;;;;23.13;17.30;;;;;;;11.86;75.71;101163.91;5285764;28;20491;-86
2022/04/25 15:36:21;;;;;;;19.73;17.73;;;;;;;11.90;75.00;101166.94;5279784;28;20488;-86
2022/04/25 15:39:11;;;;;;;21.05;18.60;;;;;;;11.85;76.45;101169.72;5287182;28;20036;-87
2022/04/25 15:41:45;;;;;;;19.55;16.58;;;;;;;12.04;75.71;101172.63;5289726;28;20024;-84
2022/04/25 15:44:19;;;;;;;18.35;16.35;;;;;;;12.09;76.17;101172.59;5285873;28;20032;-80
2022/04/25 15:49:46;;;;;;;17.90;16.05;;;;;;;11.89;75.84;101171.66;5229845;28;20041;-87
2022/04/25 15:52:17;;;;;;;24.02;21.42;;;;;;;11.85;75.77;101169.72;5287330;28;20017;-87
2022/04/25 15:57:46;;;;;;;29.40;19.65;;;;;;;11.69;75.80;101164.28;5267517;28;20033;-83
2022/04/25 16:00:22;;;;;;;18.98;17.08;;;;;;;11.83;76.20;101164.44;5270757;28;20029;-86
2022/04/25 16:02:57;;;;;;;18.77;16.30;;;;;;;11.73;75.82;101168.16;5280169;28;20040;-88
2022/04/25 16:05:29;;;;;;;20.98;17.15;;;;;;;11.66;75.91;101167.66;5288522;28;20052;-86
2022/04/25 16:08:00;;;;;;;18.80;16.80;;;;;;;11.76;76.45;101161.19;5274309;28;20059;-87
2022/04/25 16:10:31;;;;;;;17.55;15.55;;;;;;;12.03;75.63;101165.44;5276801;28;20464;-80
2022/04/25 16:13:03;;;;;;;18.45;15.75;;;;;;;11.94;74.23;101163.28;5275585;28;20063;-79
2022/04/25 16:15:35;;;;;;;17.50;15.68;;;;;;;12.15;74.96;101168.66;5281356;28;20475;-84
2022/04/25 16:18:08;;;;;;;20.90;18.25;;;;;;;11.92;74.49;101168.28;5281944;28;20400;-77
2022/04/25 16:20:39;;;;;;;21.33;16.75;;;;;;;11.74;74.16;101161.47;5276312;28;20108;-80
2022/04/25 16:23:13;;;;;;;21.27;16.75;;;;;;;11.75;73.92;101165.88;5286552;28;20029;-79
2022/04/25 16:25:45;;;;;;;18.20;15.27;;;;;;;11.52;74.01;101170.22;5276256;28;20035;-79
2022/04/25 16:28:17;;;;;;;17.10;15.02;;;;;;;11.47;74.55;101173.03;5286530;28;20052;-79
2022/04/25 16:30:50;;;;;;;17.90;16.00;;;;;;;11.52;74.97;101170.22;5274692;28;20043;-81
2022/04/25 16:33:21;;;;;;;21.42;16.25;;;;;;;11.60;74.37;101174.34;5266184;28;20033;-80
2022/04/25 16:35:53;;;;;;;20.77;16.63;;;;;;;11.56;74.42;101162.16;5276085;28;20103;-80
2022/04/25 16:38:25;;;;;;;22.20;16.95;;;;;;;11.48;75.09;101168.34;5286766;28;20029;-80
2022/04/25 16:40:56;;;;;;;20.23;17.83;;;;;;;11.51;74.52;101167.75;5286784;28;20111;-79
2022/04/25 16:43:29;;;;;;;23.45;17.52;;;;;;;11.53;75.23;101168.31;5287311;28;20029;-79
2022/04/25 16:46:00;;;;;;;19.92;17.15;;;;;;;11.53;74.97;101162.75;5286921;28;20033;-80
2022/04/25 16:48:34;;;;;;;21.20;16.65;;;;;;;11.64;75.29;101164.31;5285588;28;20395;-78
2022/04/25 16:51:06;;;;;;;20.90;18.65;;;;;;;11.65;75.63;101165.16;5286589;28;20104;-80
2022/04/25 16:53:37;;;;;;;19.15;16.63;;;;;;;11.63;74.81;101167.38;5286710;28;20095;-80
2022/04/25 16:56:11;;;;;;;19.63;17.55;;;;;;;11.63;74.50;101162.69;5282811;28;20029;-79
2022/04/25 16:58:42;;;;;;;20.42;17.85;;;;;;;11.70;75.20;101167.88;5265813;28;20036;-79
2022/04/25 17:01:14;;;;;;;22.10;18.42;;;;;;;11.73;74.99;101165.38;5279498;28;20486;-81
2022/04/25 17:03:45;;;;;;;20.02;17.58;;;;;;;11.69;74.96;101166.25;5259786;28;20032;-79
2022/04/25 17:06:16;;;;;;;21.10;17.30;;;;;;;11.69;75.17;101164.28;5285343;28;20394;-81
2022/04/25 17:08:48;;;;;;;23.75;20.55;;;;;;;11.67;75.03;101174.84;5286443;28;20094;-80
2022/04/25 17:11:19;;;;;;;40.13;27.52;;;;;;;11.61;74.23;101170.47;5285492;28;20029;-80
2022/04/25 17:13:51;;;;;;;19.65;17.00;;;;;;;11.55;73.66;101177.16;5285359;28;20025;-80
2022/04/25 17:16:22;;;;;;;20.45;17.20;;;;;;;11.59;74.26;101178.25;5285284;28;20024;-79
2022/04/25 17:18:53;;;;;;;23.15;17.30;;;;;;;11.47;74.24;101180.53;5286150;28;20115;-80
2022/04/25 17:21:25;;;;;;;21.75;17.60;;;;;;;11.40;74.12;101182.81;5279376;28;20527;-79
2022/04/25 17:23:56;;;;;;;19.02;16.73;;;;;;;11.25;74.05;101173.47;5283799;28;20086;-79
2022/04/25 17:26:27;;;;;;;19.42;16.65;;;;;;;11.29;74.98;101176.47;5276864;28;20124;-79
2022/04/25 17:29:01;;;;;;;19.80;17.42;;;;;;;11.35;74.77;101180.06;5284484;28;20028;-80
